createdAt,value
2023-03-08T00:01:26.411Z,5.70
2023-03-08T00:03:55.779Z,7.50
2023-03-08T00:06:25.502Z,6.93
2023-03-08T00:08:57.361Z,6.57
2023-03-08T00:11:26.117Z,7.50
2023-03-08T00:13:56.148Z,6.80
2023-03-08T00:16:25.369Z,6.07
2023-03-08T00:18:53.721Z,10.00
2023-03-08T00:21:22.462Z,7.20
2023-03-08T00:23:53.903Z,6.60
2023-03-08T00:26:22.387Z,6.90
2023-03-08T00:28:50.766Z,8.37
2023-03-08T00:31:20.534Z,7.17
2023-03-08T00:33:53.708Z,7.30
2023-03-08T00:36:22.121Z,5.30
2023-03-08T00:38:51.255Z,7.43
2023-03-08T00:41:19.977Z,7.70
2023-03-08T00:43:48.316Z,6.90
2023-03-08T00:46:17.316Z,7.47
2023-03-08T00:48:48.245Z,7.87
2023-03-08T00:51:19.065Z,9.47
2023-03-08T00:53:49.236Z,8.73
2023-03-08T00:56:17.648Z,8.00
2023-03-08T00:58:46.944Z,8.10
2023-03-08T01:01:18.077Z,8.13
2023-03-08T01:03:50.188Z,7.73
2023-03-08T01:06:18.839Z,7.93
2023-03-08T01:08:47.311Z,7.10
2023-03-08T01:11:19.227Z,7.80
2023-03-08T01:13:48.422Z,7.47
2023-03-08T01:16:19.076Z,7.13
2023-03-08T01:18:47.521Z,8.13
2023-03-08T01:21:17.648Z,7.87
2023-03-08T01:23:46.060Z,7.00
2023-03-08T01:26:16.401Z,8.33
2023-03-08T01:28:45.182Z,8.50
2023-03-08T01:31:17.195Z,7.37
2023-03-08T01:33:46.430Z,6.53
2023-03-08T01:36:19.664Z,7.70
2023-03-08T01:38:48.779Z,7.37
2023-03-08T01:41:20.792Z,7.33
2023-03-08T01:43:49.628Z,8.40
2023-03-08T01:46:26.179Z,8.83
2023-03-08T01:49:06.542Z,9.67
2023-03-08T01:51:44.406Z,7.17
2023-03-08T01:54:17.681Z,8.20
2023-03-08T01:56:48.771Z,9.30
2023-03-08T01:59:17.631Z,8.13
2023-03-08T02:01:46.918Z,7.17
2023-03-08T02:04:15.390Z,7.90
2023-03-08T02:06:46.931Z,10.63
2023-03-08T02:09:20.746Z,7.53
2023-03-08T02:11:50.307Z,8.47
2023-03-08T02:14:18.640Z,7.30
2023-03-08T02:16:50.641Z,9.43
2023-03-08T02:19:26.351Z,8.50
2023-03-08T02:21:56.096Z,8.67
2023-03-08T02:24:26.956Z,8.77
2023-03-08T02:27:03.047Z,8.30
2023-03-08T02:29:31.381Z,8.63
2023-03-08T02:31:59.724Z,8.03
2023-03-08T02:34:28.108Z,7.60
2023-03-08T02:36:56.456Z,9.47
2023-03-08T02:39:26.156Z,8.33
2023-03-08T02:41:57.046Z,7.03
2023-03-08T02:44:25.460Z,8.50
2023-03-08T02:46:55.058Z,7.77
2023-03-08T02:49:23.611Z,8.57
2023-03-08T02:51:53.496Z,6.70
2023-03-08T02:54:22.812Z,9.50
2023-03-08T02:56:52.535Z,8.27
2023-03-08T02:59:22.774Z,7.70
2023-03-08T03:01:52.580Z,8.27
2023-03-08T03:04:20.927Z,8.53
2023-03-08T03:06:49.339Z,9.13
2023-03-08T03:09:18.196Z,6.60
2023-03-08T03:11:46.802Z,8.30
2023-03-08T03:14:16.552Z,7.87
2023-03-08T03:16:46.685Z,8.57
2023-03-08T03:19:15.311Z,7.97
2023-03-08T03:21:43.697Z,8.70
2023-03-08T03:24:12.125Z,8.33
2023-03-08T03:26:46.545Z,7.40
2023-03-08T03:29:16.301Z,10.47
2023-03-08T03:31:46.587Z,8.80
2023-03-08T03:34:15.935Z,7.43
2023-03-08T03:36:45.825Z,8.03
2023-03-08T03:39:14.355Z,7.67
2023-03-08T03:41:43.846Z,6.97
2023-03-08T03:44:16.497Z,12.10
2023-03-08T03:46:47.549Z,7.90
2023-03-08T03:49:19.325Z,9.90
2023-03-08T03:51:49.123Z,9.10
2023-03-08T03:54:25.585Z,9.47
2023-03-08T03:56:58.199Z,9.83
2023-03-08T03:59:30.682Z,8.27
2023-03-08T04:01:59.109Z,8.83
2023-03-08T04:04:35.494Z,8.93
2023-03-08T04:07:04.672Z,8.97
2023-03-08T04:09:38.517Z,7.77
2023-03-08T04:12:18.140Z,9.00
2023-03-08T04:14:47.944Z,8.73
2023-03-08T04:17:17.685Z,9.70
2023-03-08T04:19:50.872Z,9.87
2023-03-08T04:22:20.714Z,9.07
2023-03-08T04:24:54.038Z,9.20
2023-03-08T04:27:28.715Z,10.20
2023-03-08T04:29:58.473Z,11.13
2023-03-08T04:32:27.710Z,10.37
2023-03-08T04:34:59.184Z,10.73
2023-03-08T04:37:30.630Z,11.70
2023-03-08T04:40:09.452Z,9.40
2023-03-08T04:42:44.145Z,8.50
2023-03-08T04:45:16.873Z,8.20
2023-03-08T04:47:46.048Z,8.50
2023-03-08T04:50:15.529Z,7.67
2023-03-08T04:52:44.190Z,9.63
2023-03-08T04:55:13.524Z,8.83
2023-03-08T04:57:41.984Z,9.37
2023-03-08T05:00:12.962Z,11.77
2023-03-08T05:02:44.723Z,13.03
2023-03-08T05:05:17.990Z,10.47
2023-03-08T05:07:46.987Z,11.53
2023-03-08T05:10:15.364Z,14.93
2023-03-08T05:12:43.827Z,11.00
2023-03-08T05:15:13.055Z,11.90
2023-03-08T05:17:41.401Z,11.07
2023-03-08T05:20:12.880Z,12.27
2023-03-08T05:22:57.630Z,12.87
2023-03-08T05:25:32.239Z,13.97
2023-03-08T05:28:02.039Z,12.57
2023-03-08T05:30:30.455Z,11.57
2023-03-08T05:32:59.163Z,12.87
2023-03-08T05:35:29.024Z,10.83
2023-03-08T05:37:58.042Z,12.77
2023-03-08T05:40:26.908Z,10.20
2023-03-08T05:42:56.185Z,10.00
2023-03-08T05:45:27.051Z,10.03
2023-03-08T05:47:57.268Z,13.07
2023-03-08T05:50:26.228Z,10.83
2023-03-08T05:52:56.711Z,9.93
2023-03-08T05:55:29.740Z,11.00
2023-03-08T05:57:59.618Z,12.33
2023-03-08T06:00:29.176Z,10.47
2023-03-08T06:03:03.877Z,8.70
2023-03-08T06:05:35.231Z,10.73
2023-03-08T06:08:05.535Z,12.97
2023-03-08T06:10:34.664Z,10.93
2023-03-08T06:13:03.590Z,10.50
2023-03-08T06:15:32.056Z,11.93
2023-03-08T06:18:00.370Z,10.93
2023-03-08T06:20:29.568Z,12.47
2023-03-08T06:22:58.213Z,11.93
2023-03-08T06:25:27.976Z,11.23
2023-03-08T06:27:56.683Z,9.33
2023-03-08T06:30:34.375Z,9.63
2023-03-08T06:33:05.084Z,8.83
2023-03-08T06:35:34.148Z,10.17
2023-03-08T06:38:04.254Z,10.13
2023-03-08T06:40:35.118Z,9.37
2023-03-08T06:43:03.610Z,11.13
2023-03-08T06:45:34.430Z,10.70
2023-03-08T06:48:03.320Z,10.40
2023-03-08T06:50:31.892Z,9.80
2023-03-08T06:53:00.578Z,8.97
2023-03-08T06:55:44.790Z,11.07
2023-03-08T06:58:13.293Z,9.57
2023-03-08T07:00:41.675Z,9.87
2023-03-08T07:03:10.997Z,9.73
2023-03-08T07:05:39.421Z,11.70
2023-03-08T07:08:07.925Z,10.17
2023-03-08T07:10:36.463Z,11.00
2023-03-08T07:13:06.131Z,11.23
2023-03-08T07:15:36.020Z,10.27
2023-03-08T07:18:04.975Z,7.93
2023-03-08T07:20:33.446Z,13.23
2023-03-08T07:23:02.015Z,10.23
2023-03-08T07:25:30.493Z,9.60
2023-03-08T07:28:00.472Z,11.13
2023-03-08T07:30:30.197Z,8.60
2023-03-08T07:32:58.631Z,16.97
2023-03-08T07:35:27.095Z,15.03
2023-03-08T07:37:55.533Z,13.90
2023-03-08T07:40:24.148Z,10.87
2023-03-08T07:42:52.443Z,11.37
2023-03-08T07:45:39.541Z,11.20
2023-03-08T07:48:08.298Z,8.17
2023-03-08T07:50:36.716Z,10.17
2023-03-08T07:53:05.472Z,9.63
2023-03-08T07:55:33.796Z,10.77
2023-03-08T07:58:02.134Z,12.80
2023-03-08T08:00:30.688Z,12.73
2023-03-08T08:03:00.398Z,10.83
2023-03-08T08:05:29.027Z,13.90
2023-03-08T08:07:57.374Z,12.20
2023-03-08T08:10:25.742Z,23.60
2023-03-08T08:12:54.035Z,19.67
2023-03-08T08:15:25.246Z,18.87
2023-03-08T08:17:54.306Z,12.40
2023-03-08T08:20:25.202Z,13.63
2023-03-08T08:22:53.700Z,12.33
2023-03-08T08:25:22.728Z,13.47
2023-03-08T08:27:51.860Z,13.40
2023-03-08T08:30:20.792Z,13.13
2023-03-08T08:32:49.301Z,13.93
2023-03-08T08:35:17.800Z,12.20
2023-03-08T08:37:47.464Z,10.87
2023-03-08T08:40:16.141Z,11.10
2023-03-08T08:42:44.485Z,9.83
2023-03-08T08:45:13.034Z,12.63
2023-03-08T08:47:41.391Z,11.53
2023-03-08T08:50:14.009Z,9.97
2023-03-08T08:52:42.516Z,9.87
2023-03-08T08:55:12.445Z,11.13
2023-03-08T08:57:40.751Z,9.63
2023-03-08T09:00:11.322Z,9.83
2023-03-08T09:02:39.698Z,7.73
2023-03-08T09:05:08.813Z,7.20
2023-03-08T09:07:39.225Z,6.57
2023-03-08T09:10:10.815Z,6.07
2023-03-08T09:12:41.308Z,5.23
2023-03-08T09:15:11.769Z,6.03
2023-03-08T09:17:40.318Z,5.90
2023-03-08T09:20:10.570Z,6.70
2023-03-08T09:22:39.491Z,7.00
2023-03-08T09:25:09.801Z,7.70
2023-03-08T09:27:38.538Z,6.63
2023-03-08T09:30:12.700Z,6.20
2023-03-08T09:32:41.196Z,5.87
2023-03-08T09:35:10.502Z,5.30
2023-03-08T09:37:39.265Z,4.73
2023-03-08T09:40:09.710Z,6.57
2023-03-08T09:42:38.928Z,5.30
2023-03-08T09:45:22.465Z,5.47
2023-03-08T09:48:00.063Z,4.07
2023-03-08T09:50:44.656Z,6.00
2023-03-08T09:53:24.413Z,4.47
2023-03-08T09:55:57.687Z,4.00
2023-03-08T09:58:36.076Z,4.17
2023-03-08T10:01:23.268Z,4.27
2023-03-08T10:04:23.773Z,3.90
2023-03-08T10:07:22.446Z,4.30
2023-03-08T10:10:05.086Z,4.17
2023-03-08T10:12:43.527Z,3.83
2023-03-08T10:15:18.807Z,4.50
2023-03-08T10:17:54.102Z,3.73
2023-03-08T10:20:27.152Z,6.10
2023-03-08T10:23:00.475Z,6.47
2023-03-08T10:25:31.691Z,4.33
2023-03-08T10:28:03.459Z,4.93
2023-03-08T10:30:38.176Z,5.27
2023-03-08T10:33:12.227Z,3.60
2023-03-08T10:35:56.736Z,4.10
2023-03-08T10:38:29.497Z,5.43
2023-03-08T10:41:03.891Z,4.00
2023-03-08T10:43:35.895Z,6.47
2023-03-08T10:46:07.541Z,5.83
2023-03-08T10:48:37.432Z,5.87
2023-03-08T10:51:14.863Z,4.00
2023-03-08T10:53:55.265Z,5.00
2023-03-08T10:56:29.206Z,5.30
2023-03-08T10:58:59.078Z,6.33
2023-03-08T11:01:30.294Z,8.00
2023-03-08T11:04:06.003Z,9.03
2023-03-08T11:06:36.292Z,6.63
2023-03-08T11:09:06.732Z,5.70
2023-03-08T11:11:43.520Z,5.57
2023-03-08T11:14:13.205Z,5.50
2023-03-08T11:17:00.427Z,6.60
2023-03-08T11:19:42.846Z,6.40
2023-03-08T11:22:37.895Z,4.60
2023-03-08T11:25:20.254Z,6.13
2023-03-08T11:28:04.753Z,6.63
2023-03-08T11:30:47.766Z,6.43
2023-03-08T11:33:40.005Z,6.23
2023-03-08T11:36:20.249Z,6.60
2023-03-08T11:38:56.462Z,5.67
2023-03-08T11:41:31.862Z,6.00
2023-03-08T11:44:35.703Z,4.73
2023-03-08T11:47:53.380Z,6.23
2023-03-08T11:50:24.860Z,6.37
2023-03-08T11:53:07.445Z,6.90
2023-03-08T11:55:50.692Z,6.53
2023-03-08T11:58:25.649Z,7.13
2023-03-08T12:01:00.850Z,6.97
2023-03-08T12:03:35.286Z,8.83
2023-03-08T12:06:22.841Z,5.40
2023-03-08T12:09:02.866Z,5.67
2023-03-08T12:11:35.793Z,7.47
2023-03-08T12:14:14.073Z,8.00
2023-03-08T12:16:49.646Z,5.83
2023-03-08T12:19:29.883Z,5.77
2023-03-08T12:22:15.484Z,5.80
2023-03-08T12:24:52.078Z,5.33
2023-03-08T12:27:29.697Z,5.93
2023-03-08T12:30:17.336Z,4.97
2023-03-08T12:32:47.355Z,6.60
2023-03-08T12:35:32.826Z,5.37
2023-03-08T12:38:03.506Z,5.07
2023-03-08T12:40:40.437Z,7.67
2023-03-08T12:43:12.765Z,5.10
2023-03-08T12:45:44.138Z,5.50
2023-03-08T12:48:26.731Z,6.17
2023-03-08T12:51:07.481Z,4.30
2023-03-08T12:53:40.833Z,4.67
2023-03-08T12:56:31.181Z,4.70
2023-03-08T12:59:01.723Z,5.30
2023-03-08T13:01:41.113Z,3.93
2023-03-08T13:04:44.721Z,4.00
2023-03-08T13:07:23.861Z,6.67
2023-03-08T13:09:59.559Z,4.37
2023-03-08T13:12:52.133Z,6.50
2023-03-08T13:15:25.328Z,7.40
2023-03-08T13:18:03.852Z,4.13
2023-03-08T13:21:01.213Z,5.60
2023-03-08T13:23:36.650Z,4.80
2023-03-08T13:26:50.449Z,7.23
2023-03-08T13:29:22.268Z,5.83
2023-03-08T13:31:52.503Z,4.37
2023-03-08T13:34:30.880Z,3.23
2023-03-08T13:37:00.132Z,6.27
2023-03-08T13:39:31.543Z,4.43
2023-03-08T13:42:12.104Z,4.27
2023-03-08T13:44:41.971Z,4.93
2023-03-08T13:47:24.257Z,3.83
2023-03-08T13:49:57.564Z,3.70
2023-03-08T13:52:30.060Z,3.33
2023-03-08T13:55:01.649Z,3.77
2023-03-08T13:57:33.573Z,3.23
2023-03-08T14:00:23.161Z,3.57
2023-03-08T14:02:51.669Z,2.93
2023-03-08T14:05:23.729Z,3.23
2023-03-08T14:08:00.941Z,3.53
2023-03-08T14:10:45.057Z,3.37
2023-03-08T14:13:19.600Z,5.60
2023-03-08T14:15:54.804Z,4.40
2023-03-08T14:18:25.152Z,5.63
2023-03-08T14:21:07.652Z,4.47
2023-03-08T14:23:41.180Z,4.97
2023-03-08T14:26:31.010Z,3.10
2023-03-08T14:29:22.153Z,2.27
2023-03-08T14:32:06.449Z,4.33
2023-03-08T14:34:39.301Z,3.77
2023-03-08T14:37:16.520Z,2.03
2023-03-08T14:39:47.209Z,4.23
2023-03-08T14:42:23.965Z,3.80
2023-03-08T14:44:55.148Z,1.87
2023-03-08T14:47:27.702Z,2.20
2023-03-08T14:49:58.687Z,2.20
2023-03-08T14:52:30.940Z,2.90
2023-03-08T14:54:59.368Z,2.67
2023-03-08T14:57:30.562Z,2.07
2023-03-08T15:00:14.043Z,1.60
2023-03-08T15:02:44.432Z,2.20
2023-03-08T15:05:28.110Z,1.70
2023-03-08T15:07:59.257Z,2.27
2023-03-08T15:10:30.914Z,5.57
2023-03-08T15:12:59.844Z,3.47
2023-03-08T15:15:28.408Z,2.60
2023-03-08T15:17:58.077Z,2.40
2023-03-08T15:20:26.413Z,1.93
2023-03-08T15:22:57.563Z,1.83
2023-03-08T15:25:28.020Z,1.50
2023-03-08T15:27:56.624Z,4.37
2023-03-08T15:30:27.937Z,2.40
2023-03-08T15:32:59.603Z,2.23
2023-03-08T15:35:28.256Z,2.03
2023-03-08T15:37:56.533Z,1.97
2023-03-08T15:40:28.221Z,2.70
2023-03-08T15:42:56.563Z,2.57
2023-03-08T15:45:25.851Z,1.70
2023-03-08T15:47:59.541Z,2.73
2023-03-08T15:50:29.416Z,3.00
2023-03-08T15:52:58.237Z,1.87
2023-03-08T15:55:29.157Z,1.70
2023-03-08T15:57:57.888Z,1.63
2023-03-08T16:00:27.719Z,2.13
2023-03-08T16:02:56.667Z,3.33
2023-03-08T16:05:28.473Z,1.70
2023-03-08T16:07:59.410Z,2.93
2023-03-08T16:10:29.751Z,1.50
2023-03-08T16:12:58.100Z,1.40
2023-03-08T16:15:26.574Z,4.37
2023-03-08T16:17:54.866Z,1.97
2023-03-08T16:20:23.534Z,2.20
2023-03-08T16:22:53.298Z,2.00
2023-03-08T16:25:23.102Z,2.60
2023-03-08T16:27:52.915Z,1.80
2023-03-08T16:30:23.895Z,2.27
2023-03-08T16:32:54.388Z,1.20
2023-03-08T16:35:22.788Z,1.43
2023-03-08T16:37:54.514Z,1.63
2023-03-08T16:40:23.191Z,3.53
2023-03-08T16:42:52.833Z,1.80
2023-03-08T16:45:21.319Z,2.50
2023-03-08T16:47:49.647Z,2.03
2023-03-08T16:50:18.671Z,1.10
2023-03-08T16:52:48.526Z,1.10
2023-03-08T16:55:20.276Z,1.80
2023-03-08T16:57:48.587Z,2.10
2023-03-08T17:00:18.141Z,1.17
2023-03-08T17:02:46.772Z,2.70
2023-03-08T17:05:15.167Z,0.80
2023-03-08T17:07:43.569Z,1.70
2023-03-08T17:10:13.154Z,1.40
2023-03-08T17:12:42.896Z,1.47
2023-03-08T17:15:15.704Z,1.67
2023-03-08T17:17:47.249Z,1.73
2023-03-08T17:20:15.612Z,1.67
2023-03-08T17:22:45.149Z,1.33
2023-03-08T17:25:13.479Z,1.70
2023-03-08T17:27:43.377Z,0.93
2023-03-08T17:30:15.652Z,0.77
2023-03-08T17:32:44.163Z,1.50
2023-03-08T17:35:15.952Z,2.00
2023-03-08T17:37:44.620Z,3.47
2023-03-08T17:40:14.803Z,2.73
2023-03-08T17:42:45.173Z,1.10
2023-03-08T17:45:14.407Z,2.93
2023-03-08T17:47:43.303Z,1.90
2023-03-08T17:50:14.129Z,4.43
2023-03-08T17:52:43.233Z,1.23
2023-03-08T17:55:12.368Z,1.40
2023-03-08T17:57:40.776Z,1.77
2023-03-08T18:00:13.036Z,3.00
2023-03-08T18:02:41.482Z,1.73
2023-03-08T18:05:11.444Z,2.03
2023-03-08T18:07:41.891Z,2.93
2023-03-08T18:10:13.148Z,2.93
2023-03-08T18:12:41.603Z,2.27
2023-03-08T18:15:13.302Z,1.50
2023-03-08T18:17:41.696Z,1.03
2023-03-08T18:20:12.445Z,1.40
2023-03-08T18:22:41.856Z,2.63
2023-03-08T18:25:11.241Z,1.70
2023-03-08T18:27:40.392Z,2.57
2023-03-08T18:30:14.276Z,3.23
2023-03-08T18:32:42.819Z,3.20
2023-03-08T18:35:13.415Z,3.83
2023-03-08T18:37:41.952Z,3.00
2023-03-08T18:40:12.646Z,3.33
2023-03-08T18:42:41.483Z,2.93
2023-03-08T18:45:13.095Z,3.23
2023-03-08T18:47:41.658Z,2.23
2023-03-08T18:50:15.636Z,2.07
2023-03-08T18:52:44.154Z,2.00
2023-03-08T18:55:13.277Z,1.47
2023-03-08T18:57:41.983Z,5.33
2023-03-08T19:00:15.369Z,2.37
2023-03-08T19:02:43.678Z,3.37
2023-03-08T19:05:12.976Z,3.10
2023-03-08T19:07:42.143Z,5.13
2023-03-08T19:10:14.806Z,6.60
2023-03-08T19:12:44.736Z,3.17
2023-03-08T19:15:14.652Z,6.30
2023-03-08T19:17:43.002Z,6.23
2023-03-08T19:20:13.405Z,4.30
2023-03-08T19:22:41.811Z,4.97
2023-03-08T19:25:11.228Z,5.40
2023-03-08T19:27:39.854Z,6.27
2023-03-08T19:30:10.671Z,4.53
2023-03-08T19:32:42.497Z,4.60
2023-03-08T19:35:11.648Z,5.07
2023-03-08T19:37:40.192Z,4.70
2023-03-08T19:40:10.888Z,6.30
2023-03-08T19:42:39.605Z,4.97
2023-03-08T19:45:10.046Z,5.10
2023-03-08T19:47:39.989Z,7.00
2023-03-08T19:50:13.174Z,7.67
2023-03-08T19:52:41.497Z,2.77
2023-03-08T19:55:10.737Z,3.30
2023-03-08T19:57:39.066Z,4.10
2023-03-08T20:00:10.211Z,5.47
2023-03-08T20:02:45.951Z,3.47
2023-03-08T20:05:14.431Z,1.60
2023-03-08T20:07:42.964Z,1.83
2023-03-08T20:10:17.673Z,1.93
2023-03-08T20:12:47.205Z,2.17
2023-03-08T20:15:17.367Z,1.83
2023-03-08T20:17:48.373Z,1.60
2023-03-08T20:20:17.348Z,2.03
2023-03-08T20:22:46.405Z,5.30
2023-03-08T20:25:20.031Z,1.87
2023-03-08T20:27:48.399Z,2.10
2023-03-08T20:30:17.152Z,2.10
2023-03-08T20:32:46.869Z,1.47
2023-03-08T20:35:15.768Z,2.23
2023-03-08T20:37:44.126Z,1.40
2023-03-08T20:40:16.612Z,1.87
2023-03-08T20:42:45.246Z,1.77
2023-03-08T20:45:14.231Z,1.47
2023-03-08T20:47:42.573Z,2.30
2023-03-08T20:50:13.277Z,1.27
2023-03-08T20:52:41.629Z,1.87
2023-03-08T20:55:10.643Z,2.00
2023-03-08T20:57:38.951Z,3.73
2023-03-08T21:00:09.647Z,3.70
2023-03-08T21:02:38.416Z,6.27
2023-03-08T21:05:08.112Z,6.03
2023-03-08T21:07:37.822Z,5.03
2023-03-08T21:10:07.214Z,4.27
2023-03-08T21:12:37.140Z,2.23
2023-03-08T21:15:08.039Z,2.70
2023-03-08T21:17:39.928Z,1.60
2023-03-08T21:20:10.861Z,2.13
2023-03-08T21:22:40.572Z,4.00
2023-03-08T21:25:10.305Z,2.03
2023-03-08T21:27:38.857Z,1.80
2023-03-08T21:30:09.090Z,1.30
2023-03-08T21:32:38.325Z,3.23
2023-03-08T21:35:07.729Z,5.10
2023-03-08T21:37:36.323Z,4.10
2023-03-08T21:40:07.915Z,2.60
2023-03-08T21:42:36.292Z,1.70
2023-03-08T21:45:05.445Z,1.57
2023-03-08T21:47:33.718Z,1.00
2023-03-08T21:50:02.054Z,0.93
2023-03-08T21:52:30.477Z,1.03
2023-03-08T21:54:58.876Z,1.53
2023-03-08T21:57:28.612Z,3.00
2023-03-08T21:59:56.922Z,0.80
2023-03-08T22:02:25.263Z,0.50
2023-03-08T22:04:53.583Z,1.87
2023-03-08T22:07:21.901Z,1.20
2023-03-08T22:09:50.257Z,0.73
2023-03-08T22:12:19.890Z,0.83
2023-03-08T22:14:49.621Z,2.10
2023-03-08T22:17:17.912Z,1.07
2023-03-08T22:19:46.247Z,0.90
2023-03-08T22:22:14.588Z,0.70
2023-03-08T22:24:42.932Z,0.77
2023-03-08T22:27:13.043Z,1.57
2023-03-08T22:29:41.671Z,0.40
2023-03-08T22:32:11.430Z,0.73
2023-03-08T22:34:39.795Z,0.97
2023-03-08T22:37:08.139Z,0.53
2023-03-08T22:39:36.459Z,1.43
2023-03-08T22:42:05.058Z,3.27
2023-03-08T22:44:33.641Z,0.53
2023-03-08T22:47:02.040Z,3.13
2023-03-08T22:49:31.700Z,1.53
2023-03-08T22:52:00.079Z,4.00
2023-03-08T22:54:28.799Z,1.10
2023-03-08T22:56:57.531Z,1.27
2023-03-08T22:59:26.440Z,1.60
2023-03-08T23:01:55.777Z,1.70
2023-03-08T23:04:24.214Z,3.23
2023-03-08T23:06:53.991Z,0.70
2023-03-08T23:09:23.271Z,0.63
2023-03-08T23:11:51.886Z,0.90
2023-03-08T23:14:20.218Z,1.03
2023-03-08T23:16:48.785Z,0.90
2023-03-08T23:19:20.492Z,0.50
2023-03-08T23:21:49.715Z,0.83
2023-03-08T23:24:20.407Z,0.53
2023-03-08T23:26:48.835Z,0.90
2023-03-08T23:29:17.529Z,2.00
2023-03-08T23:31:47.589Z,1.17
2023-03-08T23:34:16.104Z,1.00
2023-03-08T23:36:44.484Z,0.27
2023-03-08T23:39:13.030Z,0.40
2023-03-08T23:41:42.897Z,1.47
2023-03-08T23:44:12.559Z,1.23
2023-03-08T23:46:41.235Z,0.83
2023-03-08T23:49:11.210Z,0.50
2023-03-08T23:51:39.614Z,1.43
2023-03-08T23:54:07.976Z,1.50
2023-03-08T23:56:38.968Z,4.20
2023-03-08T23:59:13.073Z,1.77
